CA-0344 weather

CLOSED Smeaton Airport
Saskatchewan, Canada

Public forecast

Using degrees Celsius for public forecast. Weather courtesy of forecast.io.

METAR (pilot weather report)

Closest report is Nipawin Airport, 29.8 nm (55.1 km) ESE. Retrieved 2019/05/19 17:00 UTC (6 minutes ago):

CYBU 191700Z AUTO 08007G16KT 010V100 9SM CLR 12/M01 A3029 RMK SLP271

TAF (pilot weather forecast)

Closest forecast is Prince Albert Glass Field, 35.2 nm (65.2 km) WSW. Retrieved 2019/05/19 13:42 UTC (3 hours ago):

TAF CYPA 191238Z 1913/2001 VRB03KT P6SM FEW150 BECMG 1916/1918 09008KT RMK NXT FCST BY 191900Z